sensor_id;sensor_type;location;lat;lon;timestamp;P1;durP1;ratioP1;P2;durP2;ratioP2
31808;SDS011;18379;48.208;-1.518;2022-08-25T00:00:47;50.77;;;47.57;;
31808;SDS011;18379;48.208;-1.518;2022-08-25T00:05:49;51.43;;;47.83;;
31808;SDS011;18379;48.208;-1.518;2022-08-25T00:10:50;51.70;;;48.33;;
31808;SDS011;18379;48.208;-1.518;2022-08-25T00:15:51;54.07;;;50.30;;
31808;SDS011;18379;48.208;-1.518;2022-08-25T00:20:51;52.67;;;49.27;;
31808;SDS011;18379;48.208;-1.518;2022-08-25T00:25:52;54.53;;;50.97;;
31808;SDS011;18379;48.208;-1.518;2022-08-25T00:30:54;54.00;;;50.20;;
31808;SDS011;18379;48.208;-1.518;2022-08-25T00:35:56;53.47;;;49.90;;
31808;SDS011;18379;48.208;-1.518;2022-08-25T00:40:57;53.00;;;49.53;;
31808;SDS011;18379;48.208;-1.518;2022-08-25T00:46:08;52.60;;;49.00;;
31808;SDS011;18379;48.208;-1.518;2022-08-25T00:51:11;52.43;;;49.13;;
31808;SDS011;18379;48.208;-1.518;2022-08-25T00:56:13;52.60;;;48.80;;
31808;SDS011;18379;48.208;-1.518;2022-08-25T01:01:14;52.30;;;48.97;;
31808;SDS011;18379;48.208;-1.518;2022-08-25T01:06:15;52.33;;;48.80;;
31808;SDS011;18379;48.208;-1.518;2022-08-25T01:11:16;52.87;;;49.17;;
31808;SDS011;18379;48.208;-1.518;2022-08-25T01:16:17;52.90;;;49.40;;
31808;SDS011;18379;48.208;-1.518;2022-08-25T01:21:19;53.90;;;50.13;;
31808;SDS011;18379;48.208;-1.518;2022-08-25T01:26:23;57.90;;;53.50;;
31808;SDS011;18379;48.208;-1.518;2022-08-25T01:31:26;59.70;;;55.00;;
31808;SDS011;18379;48.208;-1.518;2022-08-25T01:36:29;62.97;;;57.73;;
31808;SDS011;18379;48.208;-1.518;2022-08-25T01:46:54;63.83;;;58.60;;
31808;SDS011;18379;48.208;-1.518;2022-08-25T01:51:56;63.57;;;58.13;;
31808;SDS011;18379;48.208;-1.518;2022-08-25T01:57:01;65.17;;;59.53;;
31808;SDS011;18379;48.208;-1.518;2022-08-25T02:02:02;64.43;;;59.00;;
31808;SDS011;18379;48.208;-1.518;2022-08-25T02:07:05;63.23;;;57.90;;
31808;SDS011;18379;48.208;-1.518;2022-08-25T02:12:07;61.83;;;56.60;;
31808;SDS011;18379;48.208;-1.518;2022-08-25T02:17:11;62.43;;;56.93;;
31808;SDS011;18379;48.208;-1.518;2022-08-25T02:22:12;59.83;;;54.80;;
31808;SDS011;18379;48.208;-1.518;2022-08-25T02:27:12;61.83;;;56.33;;
31808;SDS011;18379;48.208;-1.518;2022-08-25T02:32:14;60.20;;;55.33;;
31808;SDS011;18379;48.208;-1.518;2022-08-25T02:37:14;61.33;;;56.03;;
31808;SDS011;18379;48.208;-1.518;2022-08-25T02:42:15;57.73;;;53.30;;
31808;SDS011;18379;48.208;-1.518;2022-08-25T02:47:16;56.33;;;52.00;;
31808;SDS011;18379;48.208;-1.518;2022-08-25T02:52:17;57.10;;;52.70;;
31808;SDS011;18379;48.208;-1.518;2022-08-25T02:57:18;56.10;;;51.70;;
31808;SDS011;18379;48.208;-1.518;2022-08-25T03:02:19;54.23;;;50.33;;
31808;SDS011;18379;48.208;-1.518;2022-08-25T03:07:20;53.57;;;49.83;;
31808;SDS011;18379;48.208;-1.518;2022-08-25T03:12:21;55.40;;;51.47;;
31808;SDS011;18379;48.208;-1.518;2022-08-25T03:17:22;56.67;;;52.33;;
31808;SDS011;18379;48.208;-1.518;2022-08-25T03:22:22;55.60;;;51.63;;
31808;SDS011;18379;48.208;-1.518;2022-08-25T03:27:23;54.50;;;50.70;;
31808;SDS011;18379;48.208;-1.518;2022-08-25T03:32:24;53.73;;;50.13;;
31808;SDS011;18379;48.208;-1.518;2022-08-25T03:37:25;56.33;;;52.17;;
31808;SDS011;18379;48.208;-1.518;2022-08-25T03:42:26;53.30;;;49.63;;
31808;SDS011;18379;48.208;-1.518;2022-08-25T03:47:27;54.83;;;51.03;;
31808;SDS011;18379;48.208;-1.518;2022-08-25T03:52:28;53.13;;;49.20;;
31808;SDS011;18379;48.208;-1.518;2022-08-25T03:57:29;54.47;;;50.63;;
31808;SDS011;18379;48.208;-1.518;2022-08-25T04:02:29;54.23;;;50.37;;
31808;SDS011;18379;48.208;-1.518;2022-08-25T04:07:32;48.83;;;45.73;;
31808;SDS011;18379;48.208;-1.518;2022-08-25T04:12:33;52.23;;;48.57;;
31808;SDS011;18379;48.208;-1.518;2022-08-25T04:17:38;54.17;;;50.37;;
31808;SDS011;18379;48.208;-1.518;2022-08-25T04:22:39;49.33;;;45.83;;
31808;SDS011;18379;48.208;-1.518;2022-08-25T04:27:40;49.93;;;46.50;;
31808;SDS011;18379;48.208;-1.518;2022-08-25T04:32:41;52.60;;;49.00;;
31808;SDS011;18379;48.208;-1.518;2022-08-25T04:37:42;49.80;;;46.30;;
31808;SDS011;18379;48.208;-1.518;2022-08-25T04:42:43;49.43;;;45.93;;
31808;SDS011;18379;48.208;-1.518;2022-08-25T04:47:44;49.37;;;46.17;;
31808;SDS011;18379;48.208;-1.518;2022-08-25T04:52:45;48.83;;;45.67;;
31808;SDS011;18379;48.208;-1.518;2022-08-25T04:57:46;48.50;;;45.30;;
31808;SDS011;18379;48.208;-1.518;2022-08-25T05:02:47;49.43;;;45.97;;
31808;SDS011;18379;48.208;-1.518;2022-08-25T05:07:48;48.47;;;45.23;;
31808;SDS011;18379;48.208;-1.518;2022-08-25T05:12:49;49.23;;;45.80;;
31808;SDS011;18379;48.208;-1.518;2022-08-25T05:17:49;52.07;;;48.47;;
31808;SDS011;18379;48.208;-1.518;2022-08-25T05:22:50;52.37;;;48.77;;
31808;SDS011;18379;48.208;-1.518;2022-08-25T05:27:51;53.63;;;49.60;;
31808;SDS011;18379;48.208;-1.518;2022-08-25T05:32:52;53.43;;;49.37;;
31808;SDS011;18379;48.208;-1.518;2022-08-25T05:37:53;62.87;;;57.93;;
31808;SDS011;18379;48.208;-1.518;2022-08-25T05:42:56;55.40;;;51.03;;
31808;SDS011;18379;48.208;-1.518;2022-08-25T05:47:57;53.03;;;49.07;;
31808;SDS011;18379;48.208;-1.518;2022-08-25T05:52:58;51.80;;;47.87;;
31808;SDS011;18379;48.208;-1.518;2022-08-25T05:57:58;52.37;;;48.63;;
31808;SDS011;18379;48.208;-1.518;2022-08-25T06:02:59;51.60;;;47.90;;
31808;SDS011;18379;48.208;-1.518;2022-08-25T06:08:00;51.77;;;48.07;;
31808;SDS011;18379;48.208;-1.518;2022-08-25T06:13:02;52.43;;;48.00;;
31808;SDS011;18379;48.208;-1.518;2022-08-25T06:18:03;51.97;;;48.07;;
31808;SDS011;18379;48.208;-1.518;2022-08-25T06:23:04;52.30;;;48.60;;
31808;SDS011;18379;48.208;-1.518;2022-08-25T06:28:04;51.80;;;47.93;;
31808;SDS011;18379;48.208;-1.518;2022-08-25T06:33:05;62.80;;;57.83;;
31808;SDS011;18379;48.208;-1.518;2022-08-25T06:38:06;57.27;;;53.20;;
31808;SDS011;18379;48.208;-1.518;2022-08-25T06:43:07;48.60;;;45.43;;
31808;SDS011;18379;48.208;-1.518;2022-08-25T06:48:08;49.20;;;45.47;;
31808;SDS011;18379;48.208;-1.518;2022-08-25T06:53:10;47.97;;;44.90;;
31808;SDS011;18379;48.208;-1.518;2022-08-25T06:58:11;50.00;;;46.57;;
31808;SDS011;18379;48.208;-1.518;2022-08-25T07:03:12;48.67;;;45.57;;
31808;SDS011;18379;48.208;-1.518;2022-08-25T07:08:13;49.67;;;46.07;;
31808;SDS011;18379;48.208;-1.518;2022-08-25T07:13:14;48.33;;;45.13;;
31808;SDS011;18379;48.208;-1.518;2022-08-25T07:18:15;49.17;;;45.77;;
31808;SDS011;18379;48.208;-1.518;2022-08-25T07:23:15;48.77;;;45.37;;
31808;SDS011;18379;48.208;-1.518;2022-08-25T07:28:17;47.57;;;44.43;;
31808;SDS011;18379;48.208;-1.518;2022-08-25T07:33:18;48.27;;;45.00;;
31808;SDS011;18379;48.208;-1.518;2022-08-25T07:38:19;51.43;;;47.83;;
31808;SDS011;18379;48.208;-1.518;2022-08-25T07:43:21;50.43;;;46.57;;
31808;SDS011;18379;48.208;-1.518;2022-08-25T07:48:21;49.90;;;46.60;;
31808;SDS011;18379;48.208;-1.518;2022-08-25T07:53:22;51.43;;;47.70;;
31808;SDS011;18379;48.208;-1.518;2022-08-25T07:58:24;51.07;;;47.47;;
31808;SDS011;18379;48.208;-1.518;2022-08-25T08:03:25;57.03;;;52.77;;
31808;SDS011;18379;48.208;-1.518;2022-08-25T08:08:26;52.57;;;48.47;;
31808;SDS011;18379;48.208;-1.518;2022-08-25T08:13:27;51.10;;;47.57;;
31808;SDS011;18379;48.208;-1.518;2022-08-25T08:18:28;52.50;;;48.50;;
31808;SDS011;18379;48.208;-1.518;2022-08-25T08:23:29;51.70;;;48.20;;
31808;SDS011;18379;48.208;-1.518;2022-08-25T08:28:30;51.97;;;48.30;;
31808;SDS011;18379;48.208;-1.518;2022-08-25T08:33:32;51.27;;;47.57;;
31808;SDS011;18379;48.208;-1.518;2022-08-25T08:38:34;51.23;;;47.87;;
31808;SDS011;18379;48.208;-1.518;2022-08-25T08:43:36;50.87;;;47.60;;
31808;SDS011;18379;48.208;-1.518;2022-08-25T08:48:48;49.10;;;46.10;;
31808;SDS011;18379;48.208;-1.518;2022-08-25T08:54:00;51.53;;;47.93;;
31808;SDS011;18379;48.208;-1.518;2022-08-25T08:59:16;51.87;;;48.27;;
31808;SDS011;18379;48.208;-1.518;2022-08-25T09:04:24;49.30;;;46.23;;
31808;SDS011;18379;48.208;-1.518;2022-08-25T09:09:30;52.43;;;48.83;;
31808;SDS011;18379;48.208;-1.518;2022-08-25T09:20:08;47.23;;;44.63;;
31808;SDS011;18379;48.208;-1.518;2022-08-25T09:25:27;47.93;;;45.13;;
31808;SDS011;18379;48.208;-1.518;2022-08-25T09:35:50;47.90;;;45.13;;
31808;SDS011;18379;48.208;-1.518;2022-08-25T09:40:53;49.67;;;46.60;;
31808;SDS011;18379;48.208;-1.518;2022-08-25T09:46:00;51.60;;;48.20;;
31808;SDS011;18379;48.208;-1.518;2022-08-25T09:56:34;50.20;;;47.17;;
31808;SDS011;18379;48.208;-1.518;2022-08-25T10:01:52;48.70;;;45.87;;
31808;SDS011;18379;48.208;-1.518;2022-08-25T10:06:54;49.30;;;46.40;;
31808;SDS011;18379;48.208;-1.518;2022-08-25T10:11:56;49.70;;;46.60;;
31808;SDS011;18379;48.208;-1.518;2022-08-25T10:17:13;48.97;;;46.10;;
31808;SDS011;18379;48.208;-1.518;2022-08-25T10:22:22;47.30;;;44.30;;
31808;SDS011;18379;48.208;-1.518;2022-08-25T10:38:07;50.07;;;47.00;;
31808;SDS011;18379;48.208;-1.518;2022-08-25T10:49:01;46.87;;;44.37;;
31808;SDS011;18379;48.208;-1.518;2022-08-25T11:05:02;50.47;;;47.37;;
31808;SDS011;18379;48.208;-1.518;2022-08-25T11:10:10;49.53;;;46.53;;
31808;SDS011;18379;48.208;-1.518;2022-08-25T11:15:16;47.30;;;44.70;;
31808;SDS011;18379;48.208;-1.518;2022-08-25T11:26:18;47.17;;;44.30;;
31808;SDS011;18379;48.208;-1.518;2022-08-25T11:31:28;50.00;;;47.00;;
31808;SDS011;18379;48.208;-1.518;2022-08-25T11:36:31;48.90;;;46.03;;
31808;SDS011;18379;48.208;-1.518;2022-08-25T11:57:34;49.03;;;45.90;;
31808;SDS011;18379;48.208;-1.518;2022-08-25T12:18:11;49.57;;;46.57;;
31808;SDS011;18379;48.208;-1.518;2022-08-25T12:23:40;47.67;;;44.77;;
31808;SDS011;18379;48.208;-1.518;2022-08-25T12:28:49;46.93;;;44.20;;
31808;SDS011;18379;48.208;-1.518;2022-08-25T12:39:19;50.17;;;47.07;;
31808;SDS011;18379;48.208;-1.518;2022-08-25T12:44:43;49.93;;;46.93;;
31808;SDS011;18379;48.208;-1.518;2022-08-25T12:49:49;46.40;;;43.90;;
31808;SDS011;18379;48.208;-1.518;2022-08-25T12:59:59;53.57;;;50.20;;
31808;SDS011;18379;48.208;-1.518;2022-08-25T13:15:43;49.50;;;46.50;;
31808;SDS011;18379;48.208;-1.518;2022-08-25T13:20:52;48.47;;;45.57;;
31808;SDS011;18379;48.208;-1.518;2022-08-25T13:26:14;49.17;;;46.20;;
31808;SDS011;18379;48.208;-1.518;2022-08-25T13:31:20;49.20;;;46.13;;
31808;SDS011;18379;48.208;-1.518;2022-08-25T13:36:22;49.20;;;46.10;;
31808;SDS011;18379;48.208;-1.518;2022-08-25T13:41:46;48.57;;;45.77;;
31808;SDS011;18379;48.208;-1.518;2022-08-25T13:47:06;50.57;;;47.37;;
31808;SDS011;18379;48.208;-1.518;2022-08-25T13:52:22;48.77;;;45.97;;
31808;SDS011;18379;48.208;-1.518;2022-08-25T13:57:26;52.60;;;49.30;;
31808;SDS011;18379;48.208;-1.518;2022-08-25T14:02:43;52.63;;;48.93;;
31808;SDS011;18379;48.208;-1.518;2022-08-25T14:07:53;48.00;;;45.20;;
31808;SDS011;18379;48.208;-1.518;2022-08-25T14:13:09;53.23;;;49.57;;
31808;SDS011;18379;48.208;-1.518;2022-08-25T14:23:14;49.43;;;46.33;;
31808;SDS011;18379;48.208;-1.518;2022-08-25T14:28:19;47.87;;;45.03;;
31808;SDS011;18379;48.208;-1.518;2022-08-25T14:33:23;53.13;;;49.87;;
31808;SDS011;18379;48.208;-1.518;2022-08-25T14:38:27;50.73;;;47.53;;
31808;SDS011;18379;48.208;-1.518;2022-08-25T14:43:28;51.10;;;48.00;;
31808;SDS011;18379;48.208;-1.518;2022-08-25T14:48:30;51.17;;;47.87;;
31808;SDS011;18379;48.208;-1.518;2022-08-25T14:53:34;51.83;;;48.23;;
31808;SDS011;18379;48.208;-1.518;2022-08-25T14:58:35;51.53;;;48.13;;
31808;SDS011;18379;48.208;-1.518;2022-08-25T15:03:37;53.07;;;49.53;;
31808;SDS011;18379;48.208;-1.518;2022-08-25T15:08:43;48.70;;;45.90;;
31808;SDS011;18379;48.208;-1.518;2022-08-25T15:14:02;51.13;;;48.03;;
31808;SDS011;18379;48.208;-1.518;2022-08-25T15:19:04;51.03;;;47.80;;
31808;SDS011;18379;48.208;-1.518;2022-08-25T15:24:07;51.73;;;48.40;;
31808;SDS011;18379;48.208;-1.518;2022-08-25T15:29:09;49.70;;;46.57;;
31808;SDS011;18379;48.208;-1.518;2022-08-25T15:34:10;48.53;;;45.73;;
31808;SDS011;18379;48.208;-1.518;2022-08-25T15:39:12;49.47;;;46.23;;
31808;SDS011;18379;48.208;-1.518;2022-08-25T15:44:13;49.17;;;46.33;;
31808;SDS011;18379;48.208;-1.518;2022-08-25T15:49:14;48.33;;;45.53;;
31808;SDS011;18379;48.208;-1.518;2022-08-25T15:54:15;49.70;;;46.43;;
31808;SDS011;18379;48.208;-1.518;2022-08-25T15:59:16;49.57;;;46.47;;
31808;SDS011;18379;48.208;-1.518;2022-08-25T16:04:17;48.87;;;45.73;;
31808;SDS011;18379;48.208;-1.518;2022-08-25T16:09:18;49.57;;;46.23;;
31808;SDS011;18379;48.208;-1.518;2022-08-25T16:14:20;49.30;;;46.20;;
31808;SDS011;18379;48.208;-1.518;2022-08-25T16:19:21;50.27;;;46.87;;
31808;SDS011;18379;48.208;-1.518;2022-08-25T16:24:22;50.57;;;47.27;;
31808;SDS011;18379;48.208;-1.518;2022-08-25T16:29:23;53.03;;;48.90;;
31808;SDS011;18379;48.208;-1.518;2022-08-25T16:34:24;51.27;;;47.70;;
31808;SDS011;18379;48.208;-1.518;2022-08-25T16:39:25;51.17;;;47.87;;
31808;SDS011;18379;48.208;-1.518;2022-08-25T16:44:26;51.67;;;47.83;;
31808;SDS011;18379;48.208;-1.518;2022-08-25T16:49:27;50.90;;;47.50;;
31808;SDS011;18379;48.208;-1.518;2022-08-25T16:54:28;50.93;;;47.73;;
31808;SDS011;18379;48.208;-1.518;2022-08-25T16:59:47;48.10;;;45.10;;
31808;SDS011;18379;48.208;-1.518;2022-08-25T17:04:48;49.20;;;45.83;;
31808;SDS011;18379;48.208;-1.518;2022-08-25T17:09:49;48.47;;;45.47;;
31808;SDS011;18379;48.208;-1.518;2022-08-25T17:14:53;48.63;;;45.53;;
31808;SDS011;18379;48.208;-1.518;2022-08-25T17:19:54;50.00;;;46.83;;
31808;SDS011;18379;48.208;-1.518;2022-08-25T17:24:54;50.43;;;47.17;;
31808;SDS011;18379;48.208;-1.518;2022-08-25T17:29:55;50.60;;;47.47;;
31808;SDS011;18379;48.208;-1.518;2022-08-25T17:34:57;51.07;;;47.33;;
31808;SDS011;18379;48.208;-1.518;2022-08-25T17:39:58;52.57;;;48.90;;
31808;SDS011;18379;48.208;-1.518;2022-08-25T17:44:59;50.93;;;47.53;;
31808;SDS011;18379;48.208;-1.518;2022-08-25T17:50:00;56.40;;;52.50;;
31808;SDS011;18379;48.208;-1.518;2022-08-25T17:55:00;54.73;;;51.03;;
31808;SDS011;18379;48.208;-1.518;2022-08-25T18:00:02;49.70;;;46.70;;
31808;SDS011;18379;48.208;-1.518;2022-08-25T18:05:11;48.50;;;45.60;;
31808;SDS011;18379;48.208;-1.518;2022-08-25T18:10:14;47.97;;;45.07;;
31808;SDS011;18379;48.208;-1.518;2022-08-25T18:15:16;48.53;;;45.27;;
31808;SDS011;18379;48.208;-1.518;2022-08-25T18:20:18;48.53;;;45.63;;
31808;SDS011;18379;48.208;-1.518;2022-08-25T18:25:19;47.33;;;44.33;;
31808;SDS011;18379;48.208;-1.518;2022-08-25T18:30:20;47.93;;;45.13;;
31808;SDS011;18379;48.208;-1.518;2022-08-25T18:35:21;48.37;;;45.27;;
31808;SDS011;18379;48.208;-1.518;2022-08-25T18:40:22;48.57;;;45.57;;
31808;SDS011;18379;48.208;-1.518;2022-08-25T18:45:25;54.97;;;51.20;;
31808;SDS011;18379;48.208;-1.518;2022-08-25T18:50:32;49.23;;;46.13;;
31808;SDS011;18379;48.208;-1.518;2022-08-25T18:55:35;50.03;;;46.70;;
31808;SDS011;18379;48.208;-1.518;2022-08-25T19:00:37;56.70;;;52.77;;
31808;SDS011;18379;48.208;-1.518;2022-08-25T19:05:42;48.30;;;45.17;;
31808;SDS011;18379;48.208;-1.518;2022-08-25T19:10:47;47.97;;;44.87;;
31808;SDS011;18379;48.208;-1.518;2022-08-25T19:15:50;47.17;;;44.47;;
31808;SDS011;18379;48.208;-1.518;2022-08-25T19:20:51;48.17;;;45.27;;
31808;SDS011;18379;48.208;-1.518;2022-08-25T19:25:52;47.83;;;44.97;;
31808;SDS011;18379;48.208;-1.518;2022-08-25T19:30:53;50.57;;;47.30;;
31808;SDS011;18379;48.208;-1.518;2022-08-25T19:35:54;49.90;;;46.53;;
31808;SDS011;18379;48.208;-1.518;2022-08-25T19:40:55;51.07;;;47.70;;
31808;SDS011;18379;48.208;-1.518;2022-08-25T19:45:56;50.70;;;47.07;;
31808;SDS011;18379;48.208;-1.518;2022-08-25T19:50:58;49.50;;;46.30;;
31808;SDS011;18379;48.208;-1.518;2022-08-25T19:55:59;58.23;;;54.23;;
31808;SDS011;18379;48.208;-1.518;2022-08-25T20:01:00;51.87;;;48.37;;
31808;SDS011;18379;48.208;-1.518;2022-08-25T20:06:02;55.87;;;52.23;;
31808;SDS011;18379;48.208;-1.518;2022-08-25T20:11:03;60.77;;;56.17;;
31808;SDS011;18379;48.208;-1.518;2022-08-25T20:16:05;55.07;;;51.10;;
31808;SDS011;18379;48.208;-1.518;2022-08-25T20:21:06;48.87;;;45.90;;
31808;SDS011;18379;48.208;-1.518;2022-08-25T20:26:07;48.80;;;45.57;;
31808;SDS011;18379;48.208;-1.518;2022-08-25T20:31:08;49.67;;;46.40;;
31808;SDS011;18379;48.208;-1.518;2022-08-25T20:36:12;47.90;;;44.57;;
31808;SDS011;18379;48.208;-1.518;2022-08-25T20:41:14;46.37;;;43.57;;
31808;SDS011;18379;48.208;-1.518;2022-08-25T20:46:15;45.73;;;42.93;;
31808;SDS011;18379;48.208;-1.518;2022-08-25T20:51:18;45.70;;;43.00;;
31808;SDS011;18379;48.208;-1.518;2022-08-25T20:56:20;45.43;;;42.53;;
31808;SDS011;18379;48.208;-1.518;2022-08-25T21:01:24;46.37;;;43.37;;
31808;SDS011;18379;48.208;-1.518;2022-08-25T21:06:40;47.03;;;43.80;;
31808;SDS011;18379;48.208;-1.518;2022-08-25T21:11:42;47.00;;;44.10;;
31808;SDS011;18379;48.208;-1.518;2022-08-25T21:16:43;45.13;;;42.43;;
31808;SDS011;18379;48.208;-1.518;2022-08-25T21:21:45;45.67;;;42.80;;
31808;SDS011;18379;48.208;-1.518;2022-08-25T21:26:49;46.17;;;43.30;;
31808;SDS011;18379;48.208;-1.518;2022-08-25T21:31:52;45.97;;;43.07;;
31808;SDS011;18379;48.208;-1.518;2022-08-25T21:36:54;46.93;;;44.03;;
31808;SDS011;18379;48.208;-1.518;2022-08-25T21:41:56;53.63;;;50.00;;
31808;SDS011;18379;48.208;-1.518;2022-08-25T21:46:58;50.80;;;47.23;;
31808;SDS011;18379;48.208;-1.518;2022-08-25T21:51:59;48.03;;;44.70;;
31808;SDS011;18379;48.208;-1.518;2022-08-25T21:57:02;50.13;;;46.93;;
31808;SDS011;18379;48.208;-1.518;2022-08-25T22:02:05;48.40;;;44.93;;
31808;SDS011;18379;48.208;-1.518;2022-08-25T22:07:09;47.57;;;44.40;;
31808;SDS011;18379;48.208;-1.518;2022-08-25T22:12:11;45.60;;;42.50;;
31808;SDS011;18379;48.208;-1.518;2022-08-25T22:17:12;45.60;;;42.80;;
31808;SDS011;18379;48.208;-1.518;2022-08-25T22:22:12;45.67;;;42.87;;
31808;SDS011;18379;48.208;-1.518;2022-08-25T22:27:14;44.77;;;42.17;;
31808;SDS011;18379;48.208;-1.518;2022-08-25T22:32:15;45.17;;;42.10;;
31808;SDS011;18379;48.208;-1.518;2022-08-25T22:37:16;45.33;;;42.33;;
31808;SDS011;18379;48.208;-1.518;2022-08-25T22:42:17;45.30;;;42.27;;
31808;SDS011;18379;48.208;-1.518;2022-08-25T22:47:18;45.63;;;42.80;;
31808;SDS011;18379;48.208;-1.518;2022-08-25T22:52:19;45.10;;;41.90;;
31808;SDS011;18379;48.208;-1.518;2022-08-25T22:57:20;45.43;;;42.30;;
31808;SDS011;18379;48.208;-1.518;2022-08-25T23:02:21;44.43;;;41.60;;
31808;SDS011;18379;48.208;-1.518;2022-08-25T23:07:22;45.00;;;42.17;;
31808;SDS011;18379;48.208;-1.518;2022-08-25T23:12:23;46.23;;;43.00;;
31808;SDS011;18379;48.208;-1.518;2022-08-25T23:17:24;47.27;;;44.23;;
31808;SDS011;18379;48.208;-1.518;2022-08-25T23:22:28;48.20;;;44.70;;
31808;SDS011;18379;48.208;-1.518;2022-08-25T23:27:28;49.20;;;45.07;;
31808;SDS011;18379;48.208;-1.518;2022-08-25T23:32:29;47.63;;;44.20;;
31808;SDS011;18379;48.208;-1.518;2022-08-25T23:37:30;52.77;;;49.07;;
31808;SDS011;18379;48.208;-1.518;2022-08-25T23:42:32;47.60;;;44.27;;
31808;SDS011;18379;48.208;-1.518;2022-08-25T23:47:32;47.67;;;44.23;;
31808;SDS011;18379;48.208;-1.518;2022-08-25T23:52:34;48.43;;;45.00;;
31808;SDS011;18379;48.208;-1.518;2022-08-25T23:57:34;48.07;;;44.43;;
